Welcome to Northern Hawkes Bay. New Zealand.
PWS Header
      nz Flag



Hit Counter


W3C Valid W3C Valid logo


    Wairoa

Select any of the Stations below to visit their websites.










Historic Data from Weather Underground
Select the location of interest below. Wairoa is the default. Please have patience, this Data is slow to load in.
Northern Hawkes Bay Historical Data
Daily Summary for February 24, 2017 Units:  Metric    English   Both
« Previous Day
Next Day »
Daily Weekly Monthly Yearly Custom
  High: Low: Average:
Temperature: 22.3 °C 12.7 °C 17.9 °C
Dew Point: 16.8 °C 11.8 °C 14.5 °C
Humidity: 98% 57% 82%
Wind Speed: 23.3km/h 0.0km/h 7km/h
Wind Gust: 33.1km/h - -
Wind- - SSW
Pressure: 1023.2 hPa 1018.8 hPa -
Precipitation: 1.3 mm    
Historical Graphs
 
 
Tabular Data for February 24, 2017
Time Temperature Dew Point Pressure Wind Wind Speed Wind Gust Humidity Rainfall Rate (Hourly) solar
00:04 18.6 °C 16.2 °C 1023.2 hPa SSE 6.1 km/h 15.8 km/h 86% 0.0 mm 0 W/m2
00:09 18.6 °C 16.2 °C 1022.9 hPa South 7.2 km/h 13.4 km/h 86% 0.0 mm 0 W/m2
00:14 18.6 °C 16.2 °C 1022.9 hPa SSE 9.7 km/h 14.8 km/h 86% 0.0 mm 0 W/m2
00:19 18.5 °C 16.3 °C 1022.9 hPa South 6.1 km/h 14.8 km/h 87% 0.0 mm 0 W/m2
00:24 18.3 °C 16.4 °C 1022.9 hPa South 9.7 km/h 15.8 km/h 89% 0.0 mm 0 W/m2
00:29 18.2 °C 16.4 °C 1022.9 hPa SSW 8.7 km/h 17.2 km/h 89% 0.0 mm 0 W/m2
00:34 18.1 °C 16.4 °C 1022.9 hPa SSW 6.1 km/h 17.2 km/h 90% 0.0 mm 0 W/m2
00:39 18.1 °C 16.6 °C 1022.9 hPa SSW 9.7 km/h 15.8 km/h 91% 0.0 mm 0 W/m2
00:44 18.3 °C 16.8 °C 1022.9 hPa South 13.4 km/h 17.2 km/h 91% 0.0 mm 0 W/m2
00:49 18.4 °C 16.7 °C 1022.9 hPa South 13.4 km/h 17.2 km/h 90% 0.0 mm 0 W/m2
00:54 18.4 °C 16.6 °C 1022.9 hPa SSW 7.2 km/h 17.2 km/h 89% 0.0 mm 0 W/m2
00:59 18.3 °C 16.4 °C 1022.9 hPa SSW 6.1 km/h 17.2 km/h 89% 0.0 mm 0 W/m2
01:04 18.2 °C 16.6 °C 1022.6 hPa South 9.7 km/h 15.8 km/h 90% 0.0 mm 0 W/m2
01:09 18.1 °C 16.3 °C 1022.9 hPa South 8.7 km/h 15.8 km/h 89% 0.0 mm 0 W/m2
01:14 18.2 °C 16.2 °C 1022.6 hPa South 6.1 km/h 15.8 km/h 88% 0.0 mm 0 W/m2
01:19 18.2 °C 16.2 °C 1022.6 hPa SSE 5.0 km/h 15.8 km/h 88% 0.0 mm 0 W/m2
01:24 17.9 °C 16.2 °C 1022.6 hPa SSE 5.0 km/h 19.5 km/h 90% 0.0 mm 0 W/m2
01:29 17.5 °C 16.0 °C 1022.6 hPa SSE 5.0 km/h 19.5 km/h 91% 0.0 mm 0 W/m2
01:34 17.4 °C 16.1 °C 1022.2 hPa South 1.1 km/h 12.2 km/h 92% 0.0 mm 0 W/m2
01:39 17.4 °C 16.3 °C 1022.6 hPa South 6.1 km/h 8.7 km/h 93% 0.0 mm 0 W/m2
01:44 17.5 °C 16.4 °C 1022.2 hPa South 9.7 km/h 15.8 km/h 93% 0.0 mm 0 W/m2
01:49 17.5 °C 16.2 °C 1022.2 hPa SSW 9.7 km/h 15.8 km/h 92% 0.0 mm 0 W/m2
01:53 17.6 °C 16.1 °C 1022.2 hPa SSW 5.0 km/h 17.2 km/h 91% 0.0 mm 0 W/m2
01:58 17.8 °C 16.3 °C 1022.2 hPa SSW 7.2 km/h 17.2 km/h 91% 0.0 mm 0 W/m2
02:03 17.6 °C 16.1 °C 1022.2 hPa SSW 12.2 km/h 17.2 km/h 91% 0.0 mm 0 W/m2
02:08 17.3 °C 16.0 °C 1022.2 hPa SSW 7.2 km/h 17.2 km/h 92% 0.0 mm 0 W/m2
02:13 17.2 °C 16.1 °C 1021.9 hPa SSW 2.6 km/h 17.2 km/h 93% 0.0 mm 0 W/m2
02:18 17.2 °C 16.1 °C 1021.9 hPa SSW 7.2 km/h 11.1 km/h 93% 0.0 mm 0 W/m2
02:23 17.4 °C 16.3 °C 1022.2 hPa SSW 9.7 km/h 13.4 km/h 93% 0.0 mm 0 W/m2
02:28 17.4 °C 16.1 °C 1021.9 hPa South 8.7 km/h 13.4 km/h 92% 0.0 mm 0 W/m2
02:33 17.5 °C 16.0 °C 1021.9 hPa South 8.7 km/h 13.4 km/h 91% 0.0 mm 0 W/m2
02:38 17.7 °C 15.9 °C 1021.9 hPa South 7.2 km/h 14.8 km/h 89% 0.0 mm 0 W/m2
02:43 17.8 °C 16.0 °C 1021.9 hPa South 5.0 km/h 14.8 km/h 89% 0.0 mm 0 W/m2
02:48 17.9 °C 16.2 °C 1021.9 hPa SSE 8.7 km/h 15.8 km/h 90% 0.0 mm 0 W/m2
02:53 17.9 °C 16.4 °C 1021.9 hPa South 11.1 km/h 18.3 km/h 91% 0.0 mm 0 W/m2
02:58 17.9 °C 16.4 °C 1021.9 hPa South 15.8 km/h 21.9 km/h 91% 0.0 mm 0 W/m2
03:03 17.9 °C 16.1 °C 1021.6 hPa South 9.7 km/h 21.9 km/h 89% 0.0 mm 0 W/m2
03:08 17.9 °C 16.1 °C 1021.9 hPa South 8.7 km/h 20.9 km/h 89% 0.0 mm 0 W/m2
03:13 17.9 °C 16.1 °C 1021.9 hPa South 9.7 km/h 18.3 km/h 89% 0.0 mm 0 W/m2
03:18 18.0 °C 16.2 °C 1021.9 hPa South 8.7 km/h 18.3 km/h 89% 0.0 mm 0 W/m2
03:23 17.9 °C 16.1 °C 1021.9 hPa SSW 7.2 km/h 17.2 km/h 89% 0.0 mm 0 W/m2
03:28 17.9 °C 16.1 °C 1021.9 hPa SSW 8.7 km/h 17.2 km/h 89% 0.0 mm 0 W/m2
03:33 17.9 °C 16.1 °C 1021.6 hPa South 8.7 km/h 17.2 km/h 89% 0.0 mm 0 W/m2
03:38 17.8 °C 15.8 °C 1021.6 hPa South 9.7 km/h 17.2 km/h 88% 0.0 mm 0 W/m2
03:43 17.8 °C 15.8 °C 1021.6 hPa South 8.7 km/h 17.2 km/h 88% 0.0 mm 0 W/m2
03:48 17.8 °C 15.8 °C 1021.6 hPa SSW 6.1 km/h 14.8 km/h 88% 0.0 mm 0 W/m2
03:53 17.8 °C 15.8 °C 1021.6 hPa South 5.0 km/h 14.8 km/h 88% 0.0 mm 0 W/m2
03:58 17.8 °C 15.8 °C 1021.6 hPa South 3.5 km/h 14.8 km/h 88% 0.0 mm 0 W/m2
04:03 17.8 °C 16.0 °C 1021.6 hPa SSW 5.0 km/h 11.1 km/h 89% 0.0 mm 0 W/m2
04:08 17.9 °C 16.2 °C 1021.6 hPa South 5.0 km/h 11.1 km/h 90% 0.0 mm 0 W/m2
04:13 17.9 °C 16.2 °C 1021.6 hPa South 7.2 km/h 11.1 km/h 90% 0.0 mm 0 W/m2
04:18 17.9 °C 16.2 °C 1021.6 hPa SSW 9.7 km/h 13.4 km/h 90% 0.0 mm 0 W/m2
04:23 17.8 °C 16.2 °C 1021.6 hPa South 7.2 km/h 13.4 km/h 90% 0.0 mm 0 W/m2
04:28 17.8 °C 16.3 °C 1021.6 hPa South 6.1 km/h 11.1 km/h 91% 0.0 mm 0 W/m2
04:33 17.8 °C 16.3 °C 1021.6 hPa South 5.0 km/h 11.1 km/h 91% 0.0 mm 0 W/m2
04:38 17.8 °C 16.3 °C 1021.6 hPa South 8.7 km/h 14.8 km/h 91% 0.0 mm 0 W/m2
04:43 17.9 °C 16.2 °C 1021.6 hPa South 8.7 km/h 24.5 km/h 90% 0.0 mm 0 W/m2
04:48 17.5 °C 15.5 °C 1021.2 hPa South 3.5 km/h 24.5 km/h 88% 0.0 mm 0 W/m2
04:53 17.2 °C 15.4 °C 1021.6 hPa SE 5.0 km/h 17.2 km/h 89% 0.0 mm 0 W/m2
04:58 17.1 °C 15.6 °C 1021.6 hPa ESE 2.6 km/h 9.7 km/h 91% 0.3 mm 0 W/m2
05:03 16.9 °C 15.8 °C 1021.6 hPa ESE 1.1 km/h 9.7 km/h 93% 0.3 mm 0 W/m2
05:08 16.7 °C 15.6 °C 1021.2 hPa Calm   5.0 km/h 93% 0.3 mm 0 W/m2
05:13 16.6 °C 15.7 °C 1021.2 hPa Calm   5.0 km/h 94% 0.3 mm 0 W/m2
05:18 16.5 °C 15.6 °C 1021.2 hPa Calm   3.5 km/h 94% 0.3 mm 0 W/m2
05:23 16.5 °C 15.6 °C 1021.2 hPa Calm     94% 0.3 mm 0 W/m2
05:28 16.4 °C 15.4 °C 1021.2 hPa Calm     94% 0.3 mm 0 W/m2
05:33 16.3 °C 15.3 °C 1021.2 hPa Calm     94% 0.3 mm 0 W/m2
05:38 16.2 °C 15.2 °C 1021.2 hPa Calm     94% 0.3 mm 0 W/m2
05:43 16.2 °C 15.2 °C 1021.2 hPa Calm     94% 0.3 mm 0 W/m2
05:48 16.3 °C 15.3 °C 1021.2 hPa Calm     94% 0.3 mm 0 W/m2
05:53 16.3 °C 15.3 °C 1021.2 hPa Calm     94% 0.3 mm 0 W/m2
05:58 16.2 °C 15.4 °C 1021.2 hPa Calm     95% 0.0 mm 0 W/m2
06:03 16.2 °C 15.4 °C 1021.2 hPa Calm     95% 0.0 mm 0 W/m2
06:08 16.2 °C 15.4 °C 1021.2 hPa Calm     95% 0.0 mm 0 W/m2
06:13 16.2 °C 15.4 °C 1021.2 hPa Calm     95% 0.0 mm 0 W/m2
06:18 16.2 °C 15.4 °C 1021.6 hPa West 1.1 km/h 6.1 km/h 95% 0.0 mm 0 W/m2
06:22 16.2 °C 15.4 °C 1021.2 hPa Calm   6.1 km/h 95% 0.0 mm 0 W/m2
06:27 16.2 °C 15.4 °C 1021.2 hPa Calm   3.5 km/h 95% 0.0 mm 0 W/m2
06:32 16.2 °C 15.6 °C 1021.2 hPa SW 5.0 km/h 14.8 km/h 96% 0.0 mm 0 W/m2
06:37 16.7 °C 16.2 °C 1021.2 hPa South 23.3 km/h 33.1 km/h 97% 0.0 mm 0 W/m2
06:42 16.9 °C 16.3 °C 1021.2 hPa South 19.5 km/h 33.1 km/h 96% 0.0 mm 0 W/m2
06:47 16.9 °C 16.3 °C 1021.2 hPa South 14.8 km/h 33.1 km/h 96% 0.0 mm 0 W/m2
06:52 16.8 °C 16.2 °C 1021.6 hPa South 11.1 km/h 33.1 km/h 96% 0.0 mm 0 W/m2
06:57 16.6 °C 15.9 °C 1021.2 hPa SSW 9.7 km/h 21.9 km/h 96% 0.3 mm 0 W/m2
07:02 16.5 °C 16.1 °C 1021.2 hPa SSW 6.1 km/h 19.5 km/h 97% 0.3 mm 2 W/m2
07:07 16.5 °C 16.1 °C 1021.6 hPa SW 7.2 km/h 14.8 km/h 97% 0.5 mm 3 W/m2
07:12 16.4 °C 16.1 °C 1021.6 hPa SW 6.1 km/h 12.2 km/h 98% 0.5 mm 6 W/m2
07:17 16.5 °C 16.2 °C 1021.6 hPa SSW 5.0 km/h 13.4 km/h 98% 0.5 mm 8 W/m2
07:22 16.5 °C 16.2 °C 1021.6 hPa SW 6.1 km/h 13.4 km/h 98% 0.5 mm 3 W/m2
07:27 16.5 °C 16.2 °C 1021.6 hPa SSW 11.1 km/h 14.8 km/h 98% 0.5 mm 9 W/m2
07:32 16.2 °C 15.9 °C 1021.6 hPa South 6.1 km/h 14.8 km/h 98% 0.5 mm 10 W/m2
07:37 16.4 °C 15.9 °C 1021.6 hPa South 8.7 km/h 13.4 km/h 97% 0.5 mm 12 W/m2
07:42 16.6 °C 15.9 °C 1021.6 hPa South 6.1 km/h 12.2 km/h 96% 0.5 mm 21 W/m2
07:47 16.9 °C 15.8 °C 1021.6 hPa SSW 11.1 km/h 21.9 km/h 93% 0.5 mm 43 W/m2
07:52 17.2 °C 15.2 °C 1021.6 hPa SSW 9.7 km/h 21.9 km/h 88% 0.5 mm 53 W/m2
07:57 17.3 °C 14.8 °C 1021.6 hPa SSW 9.7 km/h 18.3 km/h 85% 0.3 mm 110 W/m2
08:02 17.5 °C 14.8 °C 1021.6 hPa South 9.7 km/h 20.9 km/h 84% 0.5 mm 50 W/m2
08:07 17.6 °C 14.7 °C 1021.6 hPa South 9.7 km/h 20.9 km/h 83% 0.3 mm 55 W/m2
08:12 17.7 °C 14.6 °C 1021.6 hPa SSW 11.1 km/h 19.5 km/h 82% 0.3 mm 52 W/m2
08:17 17.7 °C 14.6 °C 1021.6 hPa SW 11.1 km/h 19.5 km/h 82% 0.3 mm 67 W/m2
08:22 17.7 °C 14.8 °C 1021.6 hPa SW 11.1 km/h 21.9 km/h 83% 0.3 mm 68 W/m2
08:27 17.7 °C 14.6 °C 1021.9 hPa SSW 14.8 km/h 21.9 km/h 82% 0.3 mm 73 W/m2
08:32 17.7 °C 14.6 °C 1021.6 hPa South 13.4 km/h 23.3 km/h 82% 0.3 mm 83 W/m2
08:37 17.7 °C 14.4 °C 1021.6 hPa South 7.2 km/h 23.3 km/h 81% 0.3 mm 99 W/m2
08:42 17.8 °C 14.3 °C 1021.9 hPa South 12.2 km/h 21.9 km/h 80% 0.3 mm 127 W/m2
08:47 18.0 °C 14.3 °C 1021.9 hPa South 15.8 km/h 23.3 km/h 79% 0.3 mm 136 W/m2
08:52 18.0 °C 14.5 °C 1021.6 hPa South 7.2 km/h 23.3 km/h 80% 0.3 mm 111 W/m2
08:57 18.0 °C 14.1 °C 1021.9 hPa SSW 12.2 km/h 21.9 km/h 78% 0.3 mm 112 W/m2
09:02 18.0 °C 14.1 °C 1021.9 hPa SW 14.8 km/h 20.9 km/h 78% 0.0 mm 102 W/m2
09:07 18.0 °C 14.1 °C 1021.9 hPa SSW 11.1 km/h 19.5 km/h 78% 0.0 mm 102 W/m2
09:12 18.0 °C 14.3 °C 1021.9 hPa SSW 8.7 km/h 18.3 km/h 79% 0.0 mm 64 W/m2
09:17 17.8 °C 14.9 °C 1021.9 hPa SSW 9.7 km/h 20.9 km/h 83% 0.0 mm 59 W/m2
09:22 17.5 °C 14.9 °C 1021.9 hPa SW 9.7 km/h 20.9 km/h 85% 0.0 mm 79 W/m2
09:27 17.4 °C 15.2 °C 1021.9 hPa SW 12.2 km/h 19.5 km/h 87% 0.0 mm 115 W/m2
09:32 17.4 °C 15.1 °C 1021.9 hPa SW 17.2 km/h 24.5 km/h 86% 0.0 mm 155 W/m2
09:37 17.5 °C 15.2 °C 1021.9 hPa SW 11.1 km/h 24.5 km/h 86% 0.0 mm 186 W/m2
09:42 17.7 °C 15.2 °C 1021.9 hPa SW 11.1 km/h 24.5 km/h 85% 0.0 mm 186 W/m2
09:47 17.8 °C 15.3 °C 1021.9 hPa SW 12.2 km/h 24.5 km/h 85% 0.0 mm 196 W/m2
09:52 17.8 °C 15.1 °C 1021.9 hPa SW 12.2 km/h 24.5 km/h 84% 0.0 mm 217 W/m2
09:57 18.0 °C 15.4 °C 1021.9 hPa SW 13.4 km/h 24.5 km/h 85% 0.0 mm 220 W/m2
10:02 18.0 °C 15.4 °C 1021.9 hPa SW 17.2 km/h 27.0 km/h 85% 0.0 mm 222 W/m2
10:07 18.1 °C 15.6 °C 1021.9 hPa SW 11.1 km/h 27.0 km/h 85% 0.0 mm 235 W/m2
10:12 18.2 °C 15.7 °C 1022.2 hPa SSW 18.3 km/h 23.3 km/h 85% 0.0 mm 282 W/m2
10:17 18.3 °C 15.7 °C 1022.2 hPa SW 18.3 km/h 24.5 km/h 85% 0.0 mm 238 W/m2
10:22 18.2 °C 15.4 °C 1022.2 hPa SW 17.2 km/h 24.5 km/h 84% 0.0 mm 269 W/m2
10:27 18.1 °C 15.6 °C 1022.2 hPa SW 14.8 km/h 24.5 km/h 85% 0.0 mm 197 W/m2
10:32 18.0 °C 15.4 °C 1022.2 hPa SW 19.5 km/h 23.3 km/h 85% 0.0 mm 466 W/m2
10:37 18.8 °C 16.2 °C 1022.2 hPa SW 18.3 km/h 24.5 km/h 85% 0.0 mm 320 W/m2
10:42 18.7 °C 15.6 °C 1022.2 hPa SW 15.8 km/h 24.5 km/h 82% 0.0 mm 267 W/m2
10:47 19.0 °C 15.7 °C 1022.2 hPa SW 15.8 km/h 24.5 km/h 81% 0.0 mm 367 W/m2
10:52 19.0 °C 15.5 °C 1022.2 hPa SW 14.8 km/h 28.0 km/h 80% 0.0 mm 341 W/m2
10:57 18.9 °C 15.6 °C 1022.2 hPa SW 15.8 km/h 28.0 km/h 81% 0.0 mm 331 W/m2
11:02 18.9 °C 15.8 °C 1022.2 hPa WSW 18.3 km/h 23.3 km/h 82% 0.0 mm 756 W/m2
11:07 19.4 °C 15.5 °C 1022.2 hPa SW 12.2 km/h 25.6 km/h 78% 0.0 mm 305 W/m2
11:12 19.0 °C 15.3 °C 1022.2 hPa SSW 8.7 km/h 25.6 km/h 79% 0.0 mm 116 W/m2
11:17 18.7 °C 15.4 °C 1022.2 hPa SSW 9.7 km/h 18.3 km/h 81% 0.0 mm 151 W/m2
11:22 18.2 °C 14.9 °C 1022.2 hPa SW 13.4 km/h 21.9 km/h 81% 0.0 mm 224 W/m2
11:27 18.0 °C 15.1 °C 1022.2 hPa SW 15.8 km/h 23.3 km/h 83% 0.0 mm 136 W/m2
11:32 17.9 °C 15.0 °C 1022.2 hPa SW 9.7 km/h 23.3 km/h 83% 0.0 mm 604 W/m2
11:37 18.5 °C 15.8 °C 1022.2 hPa SW 15.8 km/h 23.3 km/h 84% 0.0 mm 347 W/m2
11:42 18.6 °C 15.5 °C 1022.2 hPa SW 17.2 km/h 23.3 km/h 82% 0.0 mm 369 W/m2
11:47 18.9 °C 15.6 °C 1022.2 hPa SW 14.8 km/h 24.5 km/h 81% 0.0 mm 375 W/m2
11:52 18.8 °C 15.1 °C 1022.2 hPa SSW 11.1 km/h 24.5 km/h 79% 0.0 mm 478 W/m2
11:57 19.0 °C 15.1 °C 1022.2 hPa SW 13.4 km/h 23.3 km/h 78% 0.0 mm 448 W/m2
12:02 19.0 °C 15.1 °C 1021.9 hPa SSW 11.1 km/h 23.3 km/h 78% 0.0 mm 381 W/m2
12:07 19.1 °C 15.0 °C 1021.9 hPa SW 14.8 km/h 21.9 km/h 77% 0.0 mm 379 W/m2
12:12 19.1 °C 15.2 °C 1021.9 hPa SW 12.2 km/h 19.5 km/h 78% 0.0 mm 420 W/m2
12:17 19.1 °C 15.0 °C 1021.9 hPa SW 13.4 km/h 20.9 km/h 77% 0.0 mm 526 W/m2
12:36 19.5 °C 14.9 °C 1021.6 hPa SW 9.7 km/h 25.6 km/h 75% 0.0 mm 666 W/m2
12:41 19.7 °C 15.2 °C 1021.6 hPa SW 14.8 km/h 25.6 km/h 75% 0.0 mm 341 W/m2
12:46 19.6 °C 15.3 °C 1021.6 hPa SW 12.2 km/h 24.5 km/h 76% 0.0 mm 326 W/m2
12:51 19.1 °C 14.6 °C 1021.6 hPa SSW 12.2 km/h 24.5 km/h 75% 0.0 mm 315 W/m2
12:56 19.1 °C 14.6 °C 1021.6 hPa SSW 9.7 km/h 23.3 km/h 75% 0.0 mm 303 W/m2
13:01 18.9 °C 14.4 °C 1021.6 hPa SW 9.7 km/h 21.9 km/h 75% 0.0 mm 1084 W/m2
13:06 19.3 °C 14.6 °C 1021.6 hPa SW 9.7 km/h 21.9 km/h 74% 0.0 mm 330 W/m2
13:11 19.7 °C 14.3 °C 1021.6 hPa SW 8.7 km/h 20.9 km/h 71% 0.0 mm 279 W/m2
13:16 19.3 °C 13.5 °C 1021.6 hPa SW 8.7 km/h 20.9 km/h 69% 0.0 mm 292 W/m2
13:21 19.3 °C 13.7 °C 1021.6 hPa SSW 9.7 km/h 17.2 km/h 70% 0.0 mm 318 W/m2
13:26 19.3 °C 13.9 °C 1021.6 hPa SSW 11.1 km/h 17.2 km/h 71% 0.0 mm 330 W/m2
13:31 19.1 °C 13.5 °C 1021.6 hPa SSW 9.7 km/h 18.3 km/h 70% 0.0 mm 261 W/m2
13:36 19.2 °C 13.6 °C 1021.6 hPa SSW 14.8 km/h 18.3 km/h 70% 0.0 mm 319 W/m2
13:41 19.3 °C 13.9 °C 1021.6 hPa SSW 9.7 km/h 17.2 km/h 71% 0.0 mm 298 W/m2
13:57 19.9 °C 14.5 °C 1021.6 hPa South 8.7 km/h 11.1 km/h 71% 0.0 mm 490 W/m2
14:03 19.7 °C 13.4 °C 1021.6 hPa SSW 9.7 km/h 15.8 km/h 67% 0.0 mm 696 W/m2
14:08 20.0 °C 13.7 °C 1021.2 hPa SSW 12.2 km/h 19.5 km/h 67% 0.0 mm 1021 W/m2
14:13 20.5 °C 13.7 °C 1021.6 hPa SSW 5.0 km/h 19.5 km/h 65% 0.0 mm 977 W/m2
14:18 19.8 °C 13.3 °C 1021.2 hPa South 12.2 km/h 18.3 km/h 66% 0.0 mm 970 W/m2
14:23 20.2 °C 13.4 °C 1021.6 hPa South 6.1 km/h 20.9 km/h 65% 0.0 mm 289 W/m2
14:28 20.5 °C 13.7 °C 1021.2 hPa South 14.8 km/h 20.9 km/h 65% 0.0 mm 979 W/m2
14:33 20.2 °C 13.2 °C 1021.2 hPa South 11.1 km/h 18.3 km/h 64% 0.0 mm 338 W/m2
14:38 20.3 °C 13.3 °C 1021.2 hPa South 9.7 km/h 18.3 km/h 64% 0.0 mm 765 W/m2
14:43 20.4 °C 13.4 °C 1020.9 hPa South 13.4 km/h 17.2 km/h 64% 0.0 mm 681 W/m2
14:48 20.3 °C 13.3 °C 1021.2 hPa SSW 8.7 km/h 17.2 km/h 64% 0.0 mm 571 W/m2
14:53 20.6 °C 13.6 °C 1021.2 hPa SSW 6.1 km/h 17.2 km/h 64% 0.0 mm 765 W/m2
14:58 20.4 °C 12.9 °C 1020.9 hPa SSW 11.1 km/h 19.5 km/h 62% 0.0 mm 535 W/m2
15:03 20.5 °C 13.0 °C 1020.9 hPa SW 9.7 km/h 19.5 km/h 62% 0.0 mm 586 W/m2
15:08 20.5 °C 13.7 °C 1020.9 hPa SSW 7.2 km/h 19.5 km/h 65% 0.0 mm 470 W/m2
15:13 20.5 °C 13.2 °C 1020.9 hPa South 12.2 km/h 18.3 km/h 63% 0.0 mm 621 W/m2
15:18 20.4 °C 13.1 °C 1020.9 hPa South 12.2 km/h 18.3 km/h 63% 0.0 mm 590 W/m2
15:23 20.2 °C 12.7 °C 1020.9 hPa South 7.2 km/h 19.5 km/h 62% 0.0 mm 676 W/m2
15:28 20.8 °C 13.5 °C 1020.9 hPa South 11.1 km/h 19.5 km/h 63% 0.0 mm 505 W/m2
15:33 20.9 °C 13.8 °C 1020.9 hPa South 12.2 km/h 17.2 km/h 64% 0.0 mm 541 W/m2
15:38 21.0 °C 13.4 °C 1020.5 hPa South 9.7 km/h 15.8 km/h 62% 0.0 mm 626 W/m2
15:43 20.7 °C 13.4 °C 1020.9 hPa South 11.1 km/h 17.2 km/h 63% 0.0 mm 575 W/m2
15:48 20.9 °C 13.6 °C 1020.5 hPa South 5.0 km/h 17.2 km/h 63% 0.0 mm 612 W/m2
15:53 21.2 °C 13.7 °C 1020.5 hPa South 9.7 km/h 15.8 km/h 62% 0.0 mm 554 W/m2
15:58 20.7 °C 13.2 °C 1020.5 hPa South 9.7 km/h 17.2 km/h 62% 0.0 mm 521 W/m2
16:03 20.8 °C 13.5 °C 1020.5 hPa South 9.7 km/h 17.2 km/h 63% 0.0 mm 368 W/m2
16:08 21.2 °C 13.7 °C 1020.5 hPa SSW 13.4 km/h 18.3 km/h 62% 0.0 mm 417 W/m2
16:13 21.3 °C 13.5 °C 1020.5 hPa South 8.7 km/h 18.3 km/h 61% 0.0 mm 380 W/m2
16:18 20.9 °C 13.1 °C 1020.2 hPa South 8.7 km/h 15.8 km/h 61% 0.0 mm 432 W/m2
16:23 21.6 °C 13.8 °C 1020.2 hPa South 8.7 km/h 14.8 km/h 61% 0.0 mm 426 W/m2
16:28 21.2 °C 13.7 °C 1020.5 hPa SSE 9.7 km/h 15.8 km/h 62% 0.0 mm 395 W/m2
16:33 21.6 °C 14.0 °C 1020.2 hPa South 3.5 km/h 15.8 km/h 62% 0.0 mm 340 W/m2
16:38 22.2 °C 14.3 °C 1020.2 hPa South 5.0 km/h 14.8 km/h 61% 0.0 mm 173 W/m2
16:43 22.2 °C 13.6 °C 1020.2 hPa South 5.0 km/h 13.4 km/h 58% 0.0 mm 116 W/m2
16:59 22.2 °C 13.6 °C 1019.9 hPa South 3.5 km/h 15.8 km/h 58% 0.0 mm 464 W/m2
17:04 22.3 °C 13.4 °C 1020.2 hPa South 9.7 km/h 17.2 km/h 57% 0.0 mm 454 W/m2
17:09 21.3 °C 13.2 °C 1019.9 hPa South 9.7 km/h 17.2 km/h 60% 0.0 mm 101 W/m2
17:14 20.4 °C 13.4 °C 1019.9 hPa SSE 8.7 km/h 14.8 km/h 64% 0.0 mm 124 W/m2
17:19 20.3 °C 13.5 °C 1019.9 hPa South 6.1 km/h 13.4 km/h 65% 0.0 mm 391 W/m2
17:24 20.9 °C 13.6 °C 1019.9 hPa South 9.7 km/h 13.4 km/h 63% 0.0 mm 379 W/m2
17:29 20.6 °C 13.6 °C 1019.5 hPa South 9.7 km/h 13.4 km/h 64% 0.0 mm 358 W/m2
17:34 21.1 °C 13.6 °C 1019.9 hPa SSE 6.1 km/h 14.8 km/h 62% 0.0 mm 373 W/m2
17:39 21.0 °C 12.9 °C 1019.5 hPa South 5.0 km/h 14.8 km/h 60% 0.0 mm 94 W/m2
17:44 20.9 °C 13.6 °C 1019.5 hPa SSE 2.6 km/h 9.7 km/h 63% 0.0 mm 236 W/m2
17:49 20.8 °C 13.5 °C 1019.5 hPa SSE 6.1 km/h 13.4 km/h 63% 0.0 mm 253 W/m2
17:54 21.1 °C 13.6 °C 1019.5 hPa SSW 7.2 km/h 13.4 km/h 62% 0.0 mm 272 W/m2
17:59 21.2 °C 12.9 °C 1019.5 hPa South 3.5 km/h 12.2 km/h 59% 0.0 mm 252 W/m2
18:04 21.8 °C 13.4 °C 1019.2 hPa SSE 6.1 km/h 12.2 km/h 59% 0.0 mm 238 W/m2
18:09 21.7 °C 13.6 °C 1019.5 hPa South 3.5 km/h 9.7 km/h 60% 0.0 mm 228 W/m2
18:14 22.1 °C 13.7 °C 1019.2 hPa South 6.1 km/h 8.7 km/h 59% 0.0 mm 213 W/m2
18:19 21.9 °C 13.6 °C 1019.5 hPa South 2.6 km/h 9.7 km/h 59% 0.0 mm 194 W/m2
18:24 22.0 °C 13.4 °C 1019.2 hPa South 5.0 km/h 9.7 km/h 58% 0.0 mm 170 W/m2
18:29 21.3 °C 12.7 °C 1019.2 hPa South 5.0 km/h 9.7 km/h 58% 0.0 mm 80 W/m2
18:34 20.5 °C 13.0 °C 1019.2 hPa SSE 5.0 km/h 9.7 km/h 62% 0.0 mm 103 W/m2
18:39 20.2 °C 12.9 °C 1019.2 hPa SSE 7.2 km/h 9.7 km/h 63% 0.0 mm 50 W/m2
18:44 19.4 °C 12.7 °C 1019.2 hPa South 3.5 km/h 9.7 km/h 65% 0.0 mm 53 W/m2
18:49 19.3 °C 12.8 °C 1018.8 hPa South 1.1 km/h 9.7 km/h 66% 0.0 mm 52 W/m2
18:54 19.4 °C 12.9 °C 1018.8 hPa South 1.1 km/h 6.1 km/h 66% 0.0 mm 45 W/m2
19:12 20.0 °C 13.2 °C 1019.2 hPa South 5.0 km/h 7.2 km/h 65% 0.0 mm 47 W/m2
19:17 19.8 °C 13.3 °C 1019.2 hPa South 2.6 km/h 7.2 km/h 66% 0.0 mm 41 W/m2
19:22 19.3 °C 13.1 °C 1019.2 hPa South 1.1 km/h 7.2 km/h 67% 0.0 mm 31 W/m2
19:27 18.9 °C 13.1 °C 1019.2 hPa SSE 3.5 km/h 6.1 km/h 69% 0.0 mm 30 W/m2
19:32 18.6 °C 13.1 °C 1018.8 hPa SSE 1.1 km/h 6.1 km/h 70% 0.0 mm 24 W/m2
19:37 18.3 °C 12.9 °C 1018.8 hPa South 2.6 km/h 6.1 km/h 71% 0.0 mm 21 W/m2
19:42 18.1 °C 12.6 °C 1019.2 hPa SSE 1.1 km/h 6.1 km/h 70% 0.0 mm 16 W/m2
19:47 17.9 °C 12.8 °C 1019.2 hPa Calm   5.0 km/h 72% 0.0 mm 13 W/m2
19:52 17.6 °C 12.5 °C 1019.2 hPa Calm   5.0 km/h 72% 0.0 mm 8 W/m2
19:57 17.4 °C 12.3 °C 1019.2 hPa Calm   1.1 km/h 72% 0.0 mm 4 W/m2
20:02 17.1 °C 12.2 °C 1019.2 hPa Calm   1.1 km/h 73% 0.0 mm 2 W/m2
20:07 16.9 °C 12.4 °C 1019.2 hPa Calm   1.1 km/h 75% 0.0 mm 0 W/m2
20:12 16.6 °C 12.2 °C 1019.2 hPa Calm   1.1 km/h 75% 0.0 mm 0 W/m2
20:17 16.2 °C 11.8 °C 1019.2 hPa Calm     75% 0.0 mm 0 W/m2
20:22 16.2 °C 12.0 °C 1019.2 hPa Calm     76% 0.0 mm 0 W/m2
20:27 16.2 °C 12.2 °C 1019.2 hPa Calm     77% 0.0 mm 0 W/m2
20:32 16.1 °C 12.3 °C 1019.2 hPa Calm     78% 0.0 mm 0 W/m2
20:37 16.0 °C 12.4 °C 1019.2 hPa Calm     79% 0.0 mm 0 W/m2
20:42 15.8 °C 12.6 °C 1019.2 hPa Calm     81% 0.0 mm 0 W/m2
20:47 15.7 °C 12.8 °C 1019.2 hPa Calm     83% 0.0 mm 0 W/m2
20:52 15.5 °C 12.6 °C 1019.2 hPa Calm     83% 0.0 mm 0 W/m2
20:57 15.3 °C 12.4 °C 1019.5 hPa Calm     83% 0.0 mm 0 W/m2
21:02 15.1 °C 12.2 °C 1019.5 hPa Calm     83% 0.0 mm 0 W/m2
21:07 15.1 °C 12.6 °C 1019.2 hPa North 1.1 km/h 3.5 km/h 85% 0.0 mm 0 W/m2
21:12 15.0 °C 12.7 °C 1019.2 hPa Calm   3.5 km/h 86% 0.0 mm 0 W/m2
21:17 14.9 °C 12.8 °C 1019.5 hPa Calm   2.6 km/h 87% 0.0 mm 0 W/m2
21:22 14.9 °C 12.9 °C 1019.5 hPa NW 1.1 km/h 3.5 km/h 88% 0.0 mm 0 W/m2
21:27 14.7 °C 12.7 °C 1019.2 hPa NW 1.1 km/h 3.5 km/h 88% 0.0 mm 0 W/m2
21:32 14.6 °C 12.8 °C 1019.5 hPa Calm   2.6 km/h 89% 0.0 mm 0 W/m2
21:37 14.5 °C 12.7 °C 1019.2 hPa Calm   3.5 km/h 89% 0.0 mm 0 W/m2
21:42 14.4 °C 12.8 °C 1019.2 hPa NNW 1.1 km/h 3.5 km/h 90% 0.0 mm 0 W/m2
21:47 14.4 °C 12.9 °C 1019.5 hPa Calm   2.6 km/h 91% 0.0 mm 0 W/m2
21:52 14.4 °C 13.1 °C 1019.5 hPa Calm   2.6 km/h 92% 0.0 mm 0 W/m2
21:57 14.3 °C 13.2 °C 1019.2 hPa North 1.1 km/h 3.5 km/h 93% 0.0 mm 0 W/m2
22:02 14.2 °C 13.1 °C 1019.5 hPa Calm   3.5 km/h 93% 0.0 mm 0 W/m2
22:07 14.1 °C 13.2 °C 1019.2 hPa Calm   3.5 km/h 94% 0.0 mm 0 W/m2
22:12 14.1 °C 13.2 °C 1019.2 hPa Calm   2.6 km/h 94% 0.0 mm 0 W/m2
22:17 14.0 °C 13.1 °C 1019.2 hPa Calm     94% 0.0 mm 0 W/m2
22:22 13.9 °C 13.3 °C 1019.2 hPa Calm     96% 0.0 mm 0 W/m2
22:27 13.8 °C 13.2 °C 1019.2 hPa Calm     96% 0.0 mm 0 W/m2
22:32 13.6 °C 13.0 °C 1019.2 hPa Calm     96% 0.0 mm 0 W/m2
22:37 13.5 °C 12.9 °C 1019.2 hPa Calm     96% 0.0 mm 0 W/m2
22:42 13.4 °C 12.8 °C 1019.5 hPa NW 1.1 km/h 2.6 km/h 96% 0.0 mm 0 W/m2
22:47 13.4 °C 12.8 °C 1019.2 hPa NNW 2.6 km/h 6.1 km/h 96% 0.0 mm 0 W/m2
22:52 13.3 °C 12.8 °C 1019.2 hPa NNW 1.1 km/h 6.1 km/h 97% 0.0 mm 0 W/m2
22:57 13.3 °C 12.8 °C 1019.2 hPa North 1.1 km/h 5.0 km/h 97% 0.0 mm 0 W/m2
23:02 13.2 °C 12.7 °C 1019.2 hPa North 1.1 km/h 3.5 km/h 97% 0.0 mm 0 W/m2
23:07 13.1 °C 12.7 °C 1019.2 hPa NNW 1.1 km/h 3.5 km/h 97% 0.0 mm 0 W/m2
23:12 13.0 °C 12.6 °C 1018.8 hPa Calm   3.5 km/h 97% 0.0 mm 0 W/m2
23:17 13.0 °C 12.6 °C 1018.8 hPa Calm   3.5 km/h 97% 0.0 mm 0 W/m2
23:22 13.0 °C 12.6 °C 1018.8 hPa Calm     97% 0.0 mm 0 W/m2
23:27 12.9 °C 12.4 °C 1018.8 hPa Calm   2.6 km/h 97% 0.0 mm 0 W/m2
23:32 12.8 °C 12.3 °C 1018.8 hPa Calm   3.5 km/h 97% 0.0 mm 0 W/m2
23:37 12.8 °C 12.3 °C 1018.8 hPa Calm   3.5 km/h 97% 0.0 mm 0 W/m2
23:42 12.8 °C 12.3 °C 1018.8 hPa NNW 2.6 km/h 5.0 km/h 97% 0.0 mm 0 W/m2
23:47 12.7 °C 12.2 °C 1018.8 hPa Calm   5.0 km/h 97% 0.0 mm 0 W/m2
23:52 12.7 °C 12.2 °C 1018.8 hPa Calm   5.0 km/h 97% 0.0 mm 0 W/m2
23:57 12.7 °C 12.2 °C 1018.8 hPa Calm   3.5 km/h 97% 0.0 mm 0 W/m2
Northern Hawkes Bay. New Zealand Historic Data
Compliments of Weather Underground - 2 mb